sensor_id;sensor_type;location;lat;lon;timestamp;P1;durP1;ratioP1;P2;durP2;ratioP2
52386;SDS011;38317;53.084;6.960;2023-07-30T00:01:57;5.28;;;1.92;;
52386;SDS011;38317;53.084;6.960;2023-07-30T00:04:22;6.50;;;2.30;;
52386;SDS011;38317;53.084;6.960;2023-07-30T00:06:48;5.65;;;2.17;;
52386;SDS011;38317;53.084;6.960;2023-07-30T00:09:14;8.35;;;2.80;;
52386;SDS011;38317;53.084;6.960;2023-07-30T00:11:40;7.43;;;2.92;;
52386;SDS011;38317;53.084;6.960;2023-07-30T00:14:05;5.97;;;2.45;;
52386;SDS011;38317;53.084;6.960;2023-07-30T00:16:31;5.07;;;2.15;;
52386;SDS011;38317;53.084;6.960;2023-07-30T00:18:57;7.30;;;2.40;;
52386;SDS011;38317;53.084;6.960;2023-07-30T00:21:22;6.18;;;2.42;;
52386;SDS011;38317;53.084;6.960;2023-07-30T00:23:48;7.35;;;2.40;;
52386;SDS011;38317;53.084;6.960;2023-07-30T00:26:14;7.35;;;2.50;;
52386;SDS011;38317;53.084;6.960;2023-07-30T00:28:40;5.35;;;2.40;;
52386;SDS011;38317;53.084;6.960;2023-07-30T00:31:05;6.93;;;2.47;;
52386;SDS011;38317;53.084;6.960;2023-07-30T00:33:31;7.82;;;2.58;;
52386;SDS011;38317;53.084;6.960;2023-07-30T00:35:57;7.43;;;2.38;;
52386;SDS011;38317;53.084;6.960;2023-07-30T00:38:22;7.60;;;2.58;;
52386;SDS011;38317;53.084;6.960;2023-07-30T00:40:48;6.05;;;2.40;;
52386;SDS011;38317;53.084;6.960;2023-07-30T00:43:14;6.75;;;2.25;;
52386;SDS011;38317;53.084;6.960;2023-07-30T00:45:41;7.90;;;2.40;;
52386;SDS011;38317;53.084;6.960;2023-07-30T00:48:09;6.93;;;2.55;;
52386;SDS011;38317;53.084;6.960;2023-07-30T00:50:36;6.20;;;2.30;;
52386;SDS011;38317;53.084;6.960;2023-07-30T00:53:03;8.68;;;2.70;;
52386;SDS011;38317;53.084;6.960;2023-07-30T00:55:29;6.18;;;2.35;;
52386;SDS011;38317;53.084;6.960;2023-07-30T00:57:55;6.47;;;2.60;;
52386;SDS011;38317;53.084;6.960;2023-07-30T01:00:22;6.88;;;2.38;;
52386;SDS011;38317;53.084;6.960;2023-07-30T01:02:51;8.55;;;2.70;;
52386;SDS011;38317;53.084;6.960;2023-07-30T01:05:16;8.05;;;2.72;;
52386;SDS011;38317;53.084;6.960;2023-07-30T01:07:42;9.75;;;2.75;;
52386;SDS011;38317;53.084;6.960;2023-07-30T01:10:08;7.55;;;2.70;;
52386;SDS011;38317;53.084;6.960;2023-07-30T01:12:34;7.18;;;2.53;;
52386;SDS011;38317;53.084;6.960;2023-07-30T01:15:02;6.13;;;2.72;;
52386;SDS011;38317;53.084;6.960;2023-07-30T01:17:29;9.27;;;2.78;;
52386;SDS011;38317;53.084;6.960;2023-07-30T01:19:55;7.43;;;2.70;;
52386;SDS011;38317;53.084;6.960;2023-07-30T01:22:21;7.25;;;2.47;;
52386;SDS011;38317;53.084;6.960;2023-07-30T01:24:48;9.68;;;2.65;;
52386;SDS011;38317;53.084;6.960;2023-07-30T01:27:16;7.13;;;2.20;;
52386;SDS011;38317;53.084;6.960;2023-07-30T01:30:03;8.30;;;2.63;;
52386;SDS011;38317;53.084;6.960;2023-07-30T01:32:43;8.05;;;2.55;;
52386;SDS011;38317;53.084;6.960;2023-07-30T01:35:13;7.57;;;2.40;;
52386;SDS011;38317;53.084;6.960;2023-07-30T01:37:39;10.27;;;2.60;;
52386;SDS011;38317;53.084;6.960;2023-07-30T01:40:08;10.48;;;2.75;;
52386;SDS011;38317;53.084;6.960;2023-07-30T01:42:35;8.80;;;2.92;;
52386;SDS011;38317;53.084;6.960;2023-07-30T01:45:01;10.52;;;2.60;;
52386;SDS011;38317;53.084;6.960;2023-07-30T01:47:27;11.73;;;2.75;;
52386;SDS011;38317;53.084;6.960;2023-07-30T01:49:53;10.27;;;2.90;;
52386;SDS011;38317;53.084;6.960;2023-07-30T01:52:18;6.32;;;2.45;;
52386;SDS011;38317;53.084;6.960;2023-07-30T01:54:44;9.05;;;2.97;;
52386;SDS011;38317;53.084;6.960;2023-07-30T01:57:10;11.18;;;3.03;;
52386;SDS011;38317;53.084;6.960;2023-07-30T01:59:35;7.45;;;2.70;;
52386;SDS011;38317;53.084;6.960;2023-07-30T02:02:01;10.38;;;3.33;;
52386;SDS011;38317;53.084;6.960;2023-07-30T02:04:27;9.82;;;2.92;;
52386;SDS011;38317;53.084;6.960;2023-07-30T02:06:52;9.68;;;3.47;;
52386;SDS011;38317;53.084;6.960;2023-07-30T02:09:18;8.13;;;2.65;;
52386;SDS011;38317;53.084;6.960;2023-07-30T02:11:44;9.10;;;2.70;;
52386;SDS011;38317;53.084;6.960;2023-07-30T02:14:09;11.82;;;2.83;;
52386;SDS011;38317;53.084;6.960;2023-07-30T02:16:35;10.43;;;3.08;;
52386;SDS011;38317;53.084;6.960;2023-07-30T02:19:01;10.63;;;2.78;;
52386;SDS011;38317;53.084;6.960;2023-07-30T02:21:27;7.78;;;2.97;;
52386;SDS011;38317;53.084;6.960;2023-07-30T02:23:54;12.63;;;3.08;;
52386;SDS011;38317;53.084;6.960;2023-07-30T02:26:19;11.30;;;3.63;;
52386;SDS011;38317;53.084;6.960;2023-07-30T02:28:45;9.75;;;2.88;;
52386;SDS011;38317;53.084;6.960;2023-07-30T02:31:11;8.98;;;2.80;;
52386;SDS011;38317;53.084;6.960;2023-07-30T02:33:37;12.77;;;3.40;;
52386;SDS011;38317;53.084;6.960;2023-07-30T02:36:03;10.30;;;3.15;;
52386;SDS011;38317;53.084;6.960;2023-07-30T02:38:28;8.60;;;2.67;;
52386;SDS011;38317;53.084;6.960;2023-07-30T02:40:54;10.07;;;3.45;;
52386;SDS011;38317;53.084;6.960;2023-07-30T02:43:20;11.55;;;3.28;;
52386;SDS011;38317;53.084;6.960;2023-07-30T02:45:49;9.50;;;2.63;;
52386;SDS011;38317;53.084;6.960;2023-07-30T02:48:14;9.38;;;2.67;;
52386;SDS011;38317;53.084;6.960;2023-07-30T02:50:40;8.05;;;2.42;;
52386;SDS011;38317;53.084;6.960;2023-07-30T02:53:06;9.32;;;2.72;;
52386;SDS011;38317;53.084;6.960;2023-07-30T02:55:32;10.90;;;2.70;;
52386;SDS011;38317;53.084;6.960;2023-07-30T02:57:57;10.35;;;2.92;;
52386;SDS011;38317;53.084;6.960;2023-07-30T03:00:23;8.18;;;2.72;;
52386;SDS011;38317;53.084;6.960;2023-07-30T03:02:49;13.63;;;2.63;;
52386;SDS011;38317;53.084;6.960;2023-07-30T03:05:14;8.40;;;2.50;;
52386;SDS011;38317;53.084;6.960;2023-07-30T03:07:40;10.35;;;2.65;;
52386;SDS011;38317;53.084;6.960;2023-07-30T03:10:06;7.65;;;2.28;;
52386;SDS011;38317;53.084;6.960;2023-07-30T03:12:32;8.55;;;2.40;;
52386;SDS011;38317;53.084;6.960;2023-07-30T03:14:57;9.68;;;2.67;;
52386;SDS011;38317;53.084;6.960;2023-07-30T03:17:23;11.00;;;3.05;;
52386;SDS011;38317;53.084;6.960;2023-07-30T03:19:49;9.65;;;2.33;;
52386;SDS011;38317;53.084;6.960;2023-07-30T03:22:14;7.82;;;2.17;;
52386;SDS011;38317;53.084;6.960;2023-07-30T03:24:41;7.97;;;2.53;;
52386;SDS011;38317;53.084;6.960;2023-07-30T03:27:06;6.75;;;2.28;;
52386;SDS011;38317;53.084;6.960;2023-07-30T03:29:32;7.80;;;2.45;;
52386;SDS011;38317;53.084;6.960;2023-07-30T03:31:58;8.20;;;2.30;;
52386;SDS011;38317;53.084;6.960;2023-07-30T03:34:24;7.68;;;2.47;;
52386;SDS011;38317;53.084;6.960;2023-07-30T03:36:50;14.05;;;2.45;;
52386;SDS011;38317;53.084;6.960;2023-07-30T03:39:16;8.35;;;2.13;;
52386;SDS011;38317;53.084;6.960;2023-07-30T03:41:42;10.65;;;2.30;;
52386;SDS011;38317;53.084;6.960;2023-07-30T03:44:08;10.50;;;2.55;;
52386;SDS011;38317;53.084;6.960;2023-07-30T03:46:34;7.13;;;2.13;;
52386;SDS011;38317;53.084;6.960;2023-07-30T03:48:59;12.05;;;2.20;;
52386;SDS011;38317;53.084;6.960;2023-07-30T03:51:26;7.47;;;2.10;;
52386;SDS011;38317;53.084;6.960;2023-07-30T03:53:52;9.93;;;2.40;;
52386;SDS011;38317;53.084;6.960;2023-07-30T03:56:18;8.30;;;1.80;;
52386;SDS011;38317;53.084;6.960;2023-07-30T03:58:43;11.82;;;2.50;;
52386;SDS011;38317;53.084;6.960;2023-07-30T04:01:09;16.20;;;2.25;;
52386;SDS011;38317;53.084;6.960;2023-07-30T04:03:35;7.53;;;2.00;;
52386;SDS011;38317;53.084;6.960;2023-07-30T04:06:01;6.88;;;2.20;;
52386;SDS011;38317;53.084;6.960;2023-07-30T04:08:26;8.05;;;2.25;;
52386;SDS011;38317;53.084;6.960;2023-07-30T04:10:52;6.15;;;1.92;;
52386;SDS011;38317;53.084;6.960;2023-07-30T04:13:18;12.95;;;2.75;;
52386;SDS011;38317;53.084;6.960;2023-07-30T04:15:43;7.95;;;2.05;;
52386;SDS011;38317;53.084;6.960;2023-07-30T04:18:09;7.72;;;2.70;;
52386;SDS011;38317;53.084;6.960;2023-07-30T04:20:35;6.68;;;2.05;;
52386;SDS011;38317;53.084;6.960;2023-07-30T04:23:00;8.20;;;2.38;;
52386;SDS011;38317;53.084;6.960;2023-07-30T04:25:26;10.05;;;2.28;;
52386;SDS011;38317;53.084;6.960;2023-07-30T04:27:52;6.07;;;2.03;;
52386;SDS011;38317;53.084;6.960;2023-07-30T04:30:17;10.63;;;2.30;;
52386;SDS011;38317;53.084;6.960;2023-07-30T04:32:43;8.07;;;2.10;;
52386;SDS011;38317;53.084;6.960;2023-07-30T04:35:09;8.13;;;2.20;;
52386;SDS011;38317;53.084;6.960;2023-07-30T04:37:34;10.57;;;2.17;;
52386;SDS011;38317;53.084;6.960;2023-07-30T04:40:00;10.00;;;1.90;;
52386;SDS011;38317;53.084;6.960;2023-07-30T04:42:26;8.07;;;2.25;;
52386;SDS011;38317;53.084;6.960;2023-07-30T04:44:51;8.73;;;2.30;;
52386;SDS011;38317;53.084;6.960;2023-07-30T04:47:17;8.40;;;2.08;;
52386;SDS011;38317;53.084;6.960;2023-07-30T04:49:43;9.05;;;1.90;;
52386;SDS011;38317;53.084;6.960;2023-07-30T04:52:09;8.80;;;2.63;;
52386;SDS011;38317;53.084;6.960;2023-07-30T04:54:34;8.73;;;2.05;;
52386;SDS011;38317;53.084;6.960;2023-07-30T04:57:03;7.47;;;2.25;;
52386;SDS011;38317;53.084;6.960;2023-07-30T04:59:30;8.77;;;2.58;;
52386;SDS011;38317;53.084;6.960;2023-07-30T05:01:58;10.13;;;2.10;;
52386;SDS011;38317;53.084;6.960;2023-07-30T05:04:25;7.45;;;1.85;;
52386;SDS011;38317;53.084;6.960;2023-07-30T05:06:50;8.80;;;2.30;;
52386;SDS011;38317;53.084;6.960;2023-07-30T05:09:16;9.32;;;2.67;;
52386;SDS011;38317;53.084;6.960;2023-07-30T05:11:42;11.48;;;2.50;;
52386;SDS011;38317;53.084;6.960;2023-07-30T05:14:08;9.40;;;2.67;;
52386;SDS011;38317;53.084;6.960;2023-07-30T05:16:33;9.60;;;2.55;;
52386;SDS011;38317;53.084;6.960;2023-07-30T05:19:01;8.82;;;2.63;;
52386;SDS011;38317;53.084;6.960;2023-07-30T05:21:27;10.82;;;2.30;;
52386;SDS011;38317;53.084;6.960;2023-07-30T05:23:52;7.07;;;2.10;;
52386;SDS011;38317;53.084;6.960;2023-07-30T05:26:18;9.05;;;2.30;;
52386;SDS011;38317;53.084;6.960;2023-07-30T05:28:44;8.70;;;2.05;;
52386;SDS011;38317;53.084;6.960;2023-07-30T05:31:09;7.90;;;2.20;;
52386;SDS011;38317;53.084;6.960;2023-07-30T05:33:35;7.43;;;1.98;;
52386;SDS011;38317;53.084;6.960;2023-07-30T05:36:01;8.90;;;2.35;;
52386;SDS011;38317;53.084;6.960;2023-07-30T05:38:27;9.57;;;2.30;;
52386;SDS011;38317;53.084;6.960;2023-07-30T05:40:52;7.72;;;1.98;;
52386;SDS011;38317;53.084;6.960;2023-07-30T05:43:18;8.50;;;1.95;;
52386;SDS011;38317;53.084;6.960;2023-07-30T05:45:44;12.18;;;2.30;;
52386;SDS011;38317;53.084;6.960;2023-07-30T05:48:10;8.40;;;2.53;;
52386;SDS011;38317;53.084;6.960;2023-07-30T05:50:36;9.95;;;2.55;;
52386;SDS011;38317;53.084;6.960;2023-07-30T05:53:01;12.48;;;3.53;;
52386;SDS011;38317;53.084;6.960;2023-07-30T05:55:27;12.60;;;2.75;;
52386;SDS011;38317;53.084;6.960;2023-07-30T05:57:53;11.25;;;2.53;;
52386;SDS011;38317;53.084;6.960;2023-07-30T06:00:18;10.65;;;2.47;;
52386;SDS011;38317;53.084;6.960;2023-07-30T06:02:44;12.48;;;2.55;;
52386;SDS011;38317;53.084;6.960;2023-07-30T06:05:10;10.98;;;2.72;;
52386;SDS011;38317;53.084;6.960;2023-07-30T06:07:36;13.45;;;3.00;;
52386;SDS011;38317;53.084;6.960;2023-07-30T06:10:02;9.13;;;2.15;;
52386;SDS011;38317;53.084;6.960;2023-07-30T06:12:27;7.15;;;2.60;;
52386;SDS011;38317;53.084;6.960;2023-07-30T06:14:53;12.85;;;3.17;;
52386;SDS011;38317;53.084;6.960;2023-07-30T06:17:19;8.45;;;2.00;;
52386;SDS011;38317;53.084;6.960;2023-07-30T06:19:45;9.73;;;2.50;;
52386;SDS011;38317;53.084;6.960;2023-07-30T06:22:10;10.18;;;3.08;;
52386;SDS011;38317;53.084;6.960;2023-07-30T06:24:36;10.73;;;2.30;;
52386;SDS011;38317;53.084;6.960;2023-07-30T06:27:02;10.23;;;2.47;;
52386;SDS011;38317;53.084;6.960;2023-07-30T06:29:27;11.25;;;2.50;;
52386;SDS011;38317;53.084;6.960;2023-07-30T06:31:53;11.68;;;2.47;;
52386;SDS011;38317;53.084;6.960;2023-07-30T06:34:19;10.18;;;2.40;;
52386;SDS011;38317;53.084;6.960;2023-07-30T06:36:45;11.10;;;2.15;;
52386;SDS011;38317;53.084;6.960;2023-07-30T06:39:10;9.70;;;2.63;;
52386;SDS011;38317;53.084;6.960;2023-07-30T06:41:36;9.65;;;2.20;;
52386;SDS011;38317;53.084;6.960;2023-07-30T06:44:02;10.13;;;2.25;;
52386;SDS011;38317;53.084;6.960;2023-07-30T06:46:28;11.63;;;2.75;;
52386;SDS011;38317;53.084;6.960;2023-07-30T06:48:53;11.52;;;2.95;;
52386;SDS011;38317;53.084;6.960;2023-07-30T06:51:19;13.00;;;2.50;;
52386;SDS011;38317;53.084;6.960;2023-07-30T06:53:52;8.45;;;2.17;;
52386;SDS011;38317;53.084;6.960;2023-07-30T06:56:18;12.27;;;2.38;;
52386;SDS011;38317;53.084;6.960;2023-07-30T06:58:44;13.02;;;2.85;;
52386;SDS011;38317;53.084;6.960;2023-07-30T07:01:09;9.95;;;2.65;;
52386;SDS011;38317;53.084;6.960;2023-07-30T07:03:35;12.80;;;2.65;;
52386;SDS011;38317;53.084;6.960;2023-07-30T07:06:01;9.88;;;2.60;;
52386;SDS011;38317;53.084;6.960;2023-07-30T07:08:26;7.85;;;2.50;;
52386;SDS011;38317;53.084;6.960;2023-07-30T07:10:52;10.88;;;2.38;;
52386;SDS011;38317;53.084;6.960;2023-07-30T07:13:18;10.02;;;2.53;;
52386;SDS011;38317;53.084;6.960;2023-07-30T07:15:44;7.28;;;2.20;;
52386;SDS011;38317;53.084;6.960;2023-07-30T07:18:10;12.70;;;2.60;;
52386;SDS011;38317;53.084;6.960;2023-07-30T07:20:36;10.20;;;2.90;;
52386;SDS011;38317;53.084;6.960;2023-07-30T07:23:03;10.60;;;2.63;;
52386;SDS011;38317;53.084;6.960;2023-07-30T07:25:28;15.07;;;3.15;;
52386;SDS011;38317;53.084;6.960;2023-07-30T07:27:54;9.93;;;2.45;;
52386;SDS011;38317;53.084;6.960;2023-07-30T07:30:20;13.25;;;2.42;;
52386;SDS011;38317;53.084;6.960;2023-07-30T07:32:46;12.93;;;2.70;;
52386;SDS011;38317;53.084;6.960;2023-07-30T07:35:15;13.80;;;2.67;;
52386;SDS011;38317;53.084;6.960;2023-07-30T07:37:42;11.75;;;2.33;;
52386;SDS011;38317;53.084;6.960;2023-07-30T07:40:08;10.70;;;2.20;;
52386;SDS011;38317;53.084;6.960;2023-07-30T07:42:35;8.05;;;2.30;;
52386;SDS011;38317;53.084;6.960;2023-07-30T07:45:01;10.95;;;2.33;;
52386;SDS011;38317;53.084;6.960;2023-07-30T07:47:26;16.27;;;2.80;;
52386;SDS011;38317;53.084;6.960;2023-07-30T07:49:52;10.18;;;2.47;;
52386;SDS011;38317;53.084;6.960;2023-07-30T07:52:18;8.77;;;2.03;;
52386;SDS011;38317;53.084;6.960;2023-07-30T07:54:45;11.05;;;2.28;;
52386;SDS011;38317;53.084;6.960;2023-07-30T07:57:11;7.25;;;1.85;;
52386;SDS011;38317;53.084;6.960;2023-07-30T07:59:37;10.32;;;1.70;;
52386;SDS011;38317;53.084;6.960;2023-07-30T08:02:03;11.75;;;2.13;;
52386;SDS011;38317;53.084;6.960;2023-07-30T08:04:29;8.52;;;1.55;;
52386;SDS011;38317;53.084;6.960;2023-07-30T08:06:54;8.38;;;1.38;;
52386;SDS011;38317;53.084;6.960;2023-07-30T08:09:25;10.60;;;1.83;;
52386;SDS011;38317;53.084;6.960;2023-07-30T08:11:50;9.50;;;1.60;;
52386;SDS011;38317;53.084;6.960;2023-07-30T08:14:16;5.18;;;1.27;;
52386;SDS011;38317;53.084;6.960;2023-07-30T08:16:42;8.10;;;1.77;;
52386;SDS011;38317;53.084;6.960;2023-07-30T08:19:07;5.70;;;1.40;;
52386;SDS011;38317;53.084;6.960;2023-07-30T08:21:33;11.10;;;2.03;;
52386;SDS011;38317;53.084;6.960;2023-07-30T08:24:00;8.38;;;1.77;;
52386;SDS011;38317;53.084;6.960;2023-07-30T08:26:25;8.00;;;1.55;;
52386;SDS011;38317;53.084;6.960;2023-07-30T08:28:51;9.57;;;1.50;;
52386;SDS011;38317;53.084;6.960;2023-07-30T08:31:17;6.25;;;1.35;;
52386;SDS011;38317;53.084;6.960;2023-07-30T08:33:42;7.65;;;1.20;;
52386;SDS011;38317;53.084;6.960;2023-07-30T08:36:08;8.52;;;1.70;;
52386;SDS011;38317;53.084;6.960;2023-07-30T08:38:34;8.82;;;1.23;;
52386;SDS011;38317;53.084;6.960;2023-07-30T08:41:00;6.22;;;1.13;;
52386;SDS011;38317;53.084;6.960;2023-07-30T08:43:26;5.70;;;1.15;;
52386;SDS011;38317;53.084;6.960;2023-07-30T08:45:52;8.73;;;1.17;;
52386;SDS011;38317;53.084;6.960;2023-07-30T08:48:17;8.20;;;1.45;;
52386;SDS011;38317;53.084;6.960;2023-07-30T08:50:43;5.75;;;1.02;;
52386;SDS011;38317;53.084;6.960;2023-07-30T08:53:10;8.13;;;1.15;;
52386;SDS011;38317;53.084;6.960;2023-07-30T08:55:37;8.30;;;1.20;;
52386;SDS011;38317;53.084;6.960;2023-07-30T08:58:05;8.18;;;1.30;;
52386;SDS011;38317;53.084;6.960;2023-07-30T09:00:34;6.72;;;1.08;;
52386;SDS011;38317;53.084;6.960;2023-07-30T09:03:03;8.75;;;1.55;;
52386;SDS011;38317;53.084;6.960;2023-07-30T09:05:30;4.93;;;0.90;;
52386;SDS011;38317;53.084;6.960;2023-07-30T09:07:56;6.07;;;0.85;;
52386;SDS011;38317;53.084;6.960;2023-07-30T09:10:22;4.53;;;0.93;;
52386;SDS011;38317;53.084;6.960;2023-07-30T09:12:52;5.40;;;0.85;;
52386;SDS011;38317;53.084;6.960;2023-07-30T09:15:20;6.68;;;0.98;;
52386;SDS011;38317;53.084;6.960;2023-07-30T09:17:55;3.67;;;0.80;;
52386;SDS011;38317;53.084;6.960;2023-07-30T09:20:21;3.05;;;0.80;;
52386;SDS011;38317;53.084;6.960;2023-07-30T09:22:47;4.82;;;1.33;;
52386;SDS011;38317;53.084;6.960;2023-07-30T09:25:17;4.68;;;0.98;;
52386;SDS011;38317;53.084;6.960;2023-07-30T09:27:47;5.60;;;0.80;;
52386;SDS011;38317;53.084;6.960;2023-07-30T09:30:14;3.95;;;0.93;;
52386;SDS011;38317;53.084;6.960;2023-07-30T09:32:53;5.93;;;1.50;;
52386;SDS011;38317;53.084;6.960;2023-07-30T09:35:21;7.82;;;1.58;;
52386;SDS011;38317;53.084;6.960;2023-07-30T09:37:47;5.47;;;1.30;;
52386;SDS011;38317;53.084;6.960;2023-07-30T09:40:14;3.92;;;1.00;;
52386;SDS011;38317;53.084;6.960;2023-07-30T09:42:46;7.55;;;1.20;;
52386;SDS011;38317;53.084;6.960;2023-07-30T09:45:17;4.30;;;0.90;;
52386;SDS011;38317;53.084;6.960;2023-07-30T09:47:48;6.73;;;1.30;;
52386;SDS011;38317;53.084;6.960;2023-07-30T09:50:15;6.00;;;1.10;;
52386;SDS011;38317;53.084;6.960;2023-07-30T09:52:41;10.05;;;1.40;;
52386;SDS011;38317;53.084;6.960;2023-07-30T09:55:08;7.90;;;1.98;;
52386;SDS011;38317;53.084;6.960;2023-07-30T09:57:35;7.13;;;1.38;;
52386;SDS011;38317;53.084;6.960;2023-07-30T10:00:05;4.18;;;1.15;;
52386;SDS011;38317;53.084;6.960;2023-07-30T10:02:37;7.00;;;1.00;;
52386;SDS011;38317;53.084;6.960;2023-07-30T10:05:15;6.97;;;1.17;;
52386;SDS011;38317;53.084;6.960;2023-07-30T10:07:53;7.28;;;1.08;;
52386;SDS011;38317;53.084;6.960;2023-07-30T10:10:32;5.80;;;1.08;;
52386;SDS011;38317;53.084;6.960;2023-07-30T10:13:00;2.88;;;0.82;;
52386;SDS011;38317;53.084;6.960;2023-07-30T10:15:30;5.47;;;0.90;;
52386;SDS011;38317;53.084;6.960;2023-07-30T10:20:28;4.68;;;0.95;;
52386;SDS011;38317;53.084;6.960;2023-07-30T10:22:56;2.55;;;1.00;;
52386;SDS011;38317;53.084;6.960;2023-07-30T10:25:56;2.53;;;0.65;;
52386;SDS011;38317;53.084;6.960;2023-07-30T10:28:26;5.63;;;1.10;;
52386;SDS011;38317;53.084;6.960;2023-07-30T10:31:11;5.85;;;0.90;;
52386;SDS011;38317;53.084;6.960;2023-07-30T10:33:52;4.32;;;0.90;;
52386;SDS011;38317;53.084;6.960;2023-07-30T10:37:03;3.17;;;0.50;;
52386;SDS011;38317;53.084;6.960;2023-07-30T10:41:52;4.97;;;1.00;;
52386;SDS011;38317;53.084;6.960;2023-07-30T10:44:24;3.15;;;0.80;;
52386;SDS011;38317;53.084;6.960;2023-07-30T10:46:56;3.50;;;1.02;;
52386;SDS011;38317;53.084;6.960;2023-07-30T10:49:23;4.80;;;0.80;;
52386;SDS011;38317;53.084;6.960;2023-07-30T10:51:50;7.22;;;1.33;;
52386;SDS011;38317;53.084;6.960;2023-07-30T10:54:18;8.50;;;1.65;;
52386;SDS011;38317;53.084;6.960;2023-07-30T10:56:44;4.05;;;1.00;;
52386;SDS011;38317;53.084;6.960;2023-07-30T10:59:10;5.55;;;1.20;;
52386;SDS011;38317;53.084;6.960;2023-07-30T11:01:38;3.40;;;0.90;;
52386;SDS011;38317;53.084;6.960;2023-07-30T11:04:05;6.95;;;1.40;;
52386;SDS011;38317;53.084;6.960;2023-07-30T11:06:32;6.45;;;1.40;;
52386;SDS011;38317;53.084;6.960;2023-07-30T11:08:58;4.35;;;1.25;;
52386;SDS011;38317;53.084;6.960;2023-07-30T11:11:24;6.63;;;1.20;;
52386;SDS011;38317;53.084;6.960;2023-07-30T11:13:50;6.82;;;1.10;;
52386;SDS011;38317;53.084;6.960;2023-07-30T11:16:16;3.13;;;0.93;;
52386;SDS011;38317;53.084;6.960;2023-07-30T11:18:43;6.40;;;1.42;;
52386;SDS011;38317;53.084;6.960;2023-07-30T11:21:13;7.22;;;1.20;;
52386;SDS011;38317;53.084;6.960;2023-07-30T11:23:41;8.10;;;1.23;;
52386;SDS011;38317;53.084;6.960;2023-07-30T11:26:09;6.95;;;1.05;;
52386;SDS011;38317;53.084;6.960;2023-07-30T11:28:42;5.90;;;1.30;;
52386;SDS011;38317;53.084;6.960;2023-07-30T11:31:09;6.13;;;1.30;;
52386;SDS011;38317;53.084;6.960;2023-07-30T11:33:37;7.28;;;1.17;;
52386;SDS011;38317;53.084;6.960;2023-07-30T11:36:17;6.65;;;1.10;;
52386;SDS011;38317;53.084;6.960;2023-07-30T11:38:46;5.05;;;1.60;;
52386;SDS011;38317;53.084;6.960;2023-07-30T11:41:16;6.18;;;1.23;;
52386;SDS011;38317;53.084;6.960;2023-07-30T11:43:43;5.00;;;1.00;;
52386;SDS011;38317;53.084;6.960;2023-07-30T11:46:13;5.22;;;1.00;;
52386;SDS011;38317;53.084;6.960;2023-07-30T11:48:40;6.93;;;1.13;;
52386;SDS011;38317;53.084;6.960;2023-07-30T11:51:17;4.18;;;1.20;;
52386;SDS011;38317;53.084;6.960;2023-07-30T11:53:55;7.78;;;1.52;;
52386;SDS011;38317;53.084;6.960;2023-07-30T11:58:56;5.65;;;1.08;;
52386;SDS011;38317;53.084;6.960;2023-07-30T12:01:28;5.88;;;1.30;;
52386;SDS011;38317;53.084;6.960;2023-07-30T12:03:56;5.43;;;1.23;;
52386;SDS011;38317;53.084;6.960;2023-07-30T12:06:23;4.03;;;0.90;;
52386;SDS011;38317;53.084;6.960;2023-07-30T12:08:50;7.15;;;1.00;;
52386;SDS011;38317;53.084;6.960;2023-07-30T12:11:16;6.15;;;1.20;;
52386;SDS011;38317;53.084;6.960;2023-07-30T12:13:46;5.88;;;1.08;;
52386;SDS011;38317;53.084;6.960;2023-07-30T12:16:13;6.05;;;0.90;;
52386;SDS011;38317;53.084;6.960;2023-07-30T12:18:39;5.40;;;1.02;;
52386;SDS011;38317;53.084;6.960;2023-07-30T12:21:06;5.32;;;1.35;;
52386;SDS011;38317;53.084;6.960;2023-07-30T12:23:33;9.18;;;1.85;;
52386;SDS011;38317;53.084;6.960;2023-07-30T12:25:59;6.13;;;0.98;;
52386;SDS011;38317;53.084;6.960;2023-07-30T12:28:25;6.30;;;1.33;;
52386;SDS011;38317;53.084;6.960;2023-07-30T12:30:51;3.83;;;0.85;;
52386;SDS011;38317;53.084;6.960;2023-07-30T12:33:16;6.25;;;1.10;;
52386;SDS011;38317;53.084;6.960;2023-07-30T12:35:42;5.57;;;1.00;;
52386;SDS011;38317;53.084;6.960;2023-07-30T12:38:08;7.82;;;1.40;;
52386;SDS011;38317;53.084;6.960;2023-07-30T12:40:34;6.82;;;1.10;;
52386;SDS011;38317;53.084;6.960;2023-07-30T12:43:00;6.80;;;1.00;;
52386;SDS011;38317;53.084;6.960;2023-07-30T12:45:28;7.97;;;1.42;;
52386;SDS011;38317;53.084;6.960;2023-07-30T12:47:56;6.43;;;0.77;;
52386;SDS011;38317;53.084;6.960;2023-07-30T12:50:22;6.07;;;0.70;;
52386;SDS011;38317;53.084;6.960;2023-07-30T12:52:48;7.47;;;0.85;;
52386;SDS011;38317;53.084;6.960;2023-07-30T12:55:14;2.75;;;0.50;;
52386;SDS011;38317;53.084;6.960;2023-07-30T12:57:39;3.53;;;0.82;;
52386;SDS011;38317;53.084;6.960;2023-07-30T13:00:05;1.27;;;0.40;;
52386;SDS011;38317;53.084;6.960;2023-07-30T13:02:31;4.13;;;0.52;;
52386;SDS011;38317;53.084;6.960;2023-07-30T13:05:01;4.03;;;0.75;;
52386;SDS011;38317;53.084;6.960;2023-07-30T13:07:27;1.92;;;0.47;;
52386;SDS011;38317;53.084;6.960;2023-07-30T13:10:05;2.83;;;0.75;;
52386;SDS011;38317;53.084;6.960;2023-07-30T13:12:32;5.18;;;0.50;;
52386;SDS011;38317;53.084;6.960;2023-07-30T13:14:59;3.92;;;0.77;;
52386;SDS011;38317;53.084;6.960;2023-07-30T13:17:25;4.22;;;0.75;;
52386;SDS011;38317;53.084;6.960;2023-07-30T13:19:53;2.75;;;0.45;;
52386;SDS011;38317;53.084;6.960;2023-07-30T13:22:19;2.38;;;0.60;;
52386;SDS011;38317;53.084;6.960;2023-07-30T13:24:45;3.05;;;0.73;;
52386;SDS011;38317;53.084;6.960;2023-07-30T13:27:11;2.92;;;0.50;;
52386;SDS011;38317;53.084;6.960;2023-07-30T13:29:36;5.75;;;1.20;;
52386;SDS011;38317;53.084;6.960;2023-07-30T13:32:02;3.65;;;0.70;;
52386;SDS011;38317;53.084;6.960;2023-07-30T13:34:28;5.28;;;0.70;;
52386;SDS011;38317;53.084;6.960;2023-07-30T13:36:54;3.17;;;0.80;;
52386;SDS011;38317;53.084;6.960;2023-07-30T13:39:19;10.00;;;1.73;;
52386;SDS011;38317;53.084;6.960;2023-07-30T13:41:45;5.65;;;0.88;;
52386;SDS011;38317;53.084;6.960;2023-07-30T13:44:11;5.40;;;0.90;;
52386;SDS011;38317;53.084;6.960;2023-07-30T13:46:37;7.28;;;1.23;;
52386;SDS011;38317;53.084;6.960;2023-07-30T13:49:05;5.57;;;0.65;;
52386;SDS011;38317;53.084;6.960;2023-07-30T13:51:32;5.93;;;0.80;;
52386;SDS011;38317;53.084;6.960;2023-07-30T13:53:58;5.55;;;0.93;;
52386;SDS011;38317;53.084;6.960;2023-07-30T13:56:25;5.60;;;1.23;;
52386;SDS011;38317;53.084;6.960;2023-07-30T13:58:52;4.32;;;0.75;;
52386;SDS011;38317;53.084;6.960;2023-07-30T14:01:17;4.03;;;0.90;;
52386;SDS011;38317;53.084;6.960;2023-07-30T14:03:43;6.38;;;1.00;;
52386;SDS011;38317;53.084;6.960;2023-07-30T14:06:09;6.25;;;0.70;;
52386;SDS011;38317;53.084;6.960;2023-07-30T14:08:38;5.97;;;1.33;;
52386;SDS011;38317;53.084;6.960;2023-07-30T14:11:04;7.85;;;1.13;;
52386;SDS011;38317;53.084;6.960;2023-07-30T14:13:30;4.57;;;0.85;;
52386;SDS011;38317;53.084;6.960;2023-07-30T14:15:56;4.82;;;0.60;;
52386;SDS011;38317;53.084;6.960;2023-07-30T14:18:23;11.02;;;1.63;;
52386;SDS011;38317;53.084;6.960;2023-07-30T14:20:50;5.32;;;0.75;;
52386;SDS011;38317;53.084;6.960;2023-07-30T14:23:16;5.13;;;1.25;;
52386;SDS011;38317;53.084;6.960;2023-07-30T14:25:41;3.88;;;0.80;;
52386;SDS011;38317;53.084;6.960;2023-07-30T14:28:07;8.75;;;1.30;;
52386;SDS011;38317;53.084;6.960;2023-07-30T14:30:33;7.65;;;0.82;;
52386;SDS011;38317;53.084;6.960;2023-07-30T14:33:00;6.47;;;0.90;;
52386;SDS011;38317;53.084;6.960;2023-07-30T14:35:27;4.55;;;0.60;;
52386;SDS011;38317;53.084;6.960;2023-07-30T14:37:53;4.10;;;0.77;;
52386;SDS011;38317;53.084;6.960;2023-07-30T14:40:19;4.95;;;0.73;;
52386;SDS011;38317;53.084;6.960;2023-07-30T14:42:45;5.60;;;0.70;;
52386;SDS011;38317;53.084;6.960;2023-07-30T14:45:11;6.93;;;0.60;;
52386;SDS011;38317;53.084;6.960;2023-07-30T14:47:37;5.60;;;0.90;;
52386;SDS011;38317;53.084;6.960;2023-07-30T14:50:04;4.38;;;0.75;;
52386;SDS011;38317;53.084;6.960;2023-07-30T14:52:31;5.53;;;0.65;;